sensor_id;sensor_type;location;lat;lon;timestamp;pressure;altitude;pressure_sealevel;temperature;humidity
54407;BME280;40313;50.308;30.374;2022-07-06T00:01:53;99380.41;;;19.39;100.00
54407;BME280;40313;50.308;30.374;2022-07-06T00:04:20;99380.53;;;19.38;100.00
54407;BME280;40313;50.308;30.374;2022-07-06T00:06:48;99376.53;;;19.33;100.00
54407;BME280;40313;50.308;30.374;2022-07-06T00:09:15;99380.31;;;19.31;100.00
54407;BME280;40313;50.308;30.374;2022-07-06T00:11:42;99380.31;;;19.31;100.00
54407;BME280;40313;50.308;30.374;2022-07-06T00:14:09;99369.47;;;19.24;100.00
54407;BME280;40313;50.308;30.374;2022-07-06T00:16:35;99373.66;;;19.27;100.00
54407;BME280;40313;50.308;30.374;2022-07-06T00:19:02;99378.22;;;19.25;100.00
54407;BME280;40313;50.308;30.374;2022-07-06T00:21:29;99371.31;;;19.24;100.00
54407;BME280;40313;50.308;30.374;2022-07-06T00:23:57;99372.56;;;19.20;100.00
54407;BME280;40313;50.308;30.374;2022-07-06T00:26:24;99368.41;;;19.17;100.00
54407;BME280;40313;50.308;30.374;2022-07-06T00:28:50;99367.88;;;19.13;100.00
54407;BME280;40313;50.308;30.374;2022-07-06T00:31:17;99376.94;;;19.11;100.00
54407;BME280;40313;50.308;30.374;2022-07-06T00:33:44;99369.97;;;19.10;100.00
54407;BME280;40313;50.308;30.374;2022-07-06T00:36:10;99375.41;;;19.08;100.00
54407;BME280;40313;50.308;30.374;2022-07-06T00:38:37;99379.03;;;19.07;100.00
54407;BME280;40313;50.308;30.374;2022-07-06T00:41:05;99376.69;;;19.04;100.00
54407;BME280;40313;50.308;30.374;2022-07-06T00:43:47;99374.66;;;18.98;100.00
54407;BME280;40313;50.308;30.374;2022-07-06T00:46:13;99376.28;;;18.99;100.00
54407;BME280;40313;50.308;30.374;2022-07-06T00:48:40;99370.34;;;18.97;100.00
54407;BME280;40313;50.308;30.374;2022-07-06T00:51:07;99378.56;;;18.94;100.00
54407;BME280;40313;50.308;30.374;2022-07-06T00:53:34;99373.41;;;18.92;100.00
54407;BME280;40313;50.308;30.374;2022-07-06T00:56:01;99376.06;;;18.92;100.00
54407;BME280;40313;50.308;30.374;2022-07-06T00:58:29;99370.22;;;18.89;100.00
54407;BME280;40313;50.308;30.374;2022-07-06T01:00:56;99366.03;;;18.86;100.00
54407;BME280;40313;50.308;30.374;2022-07-06T01:03:22;99364.94;;;18.79;100.00
54407;BME280;40313;50.308;30.374;2022-07-06T01:05:50;99369.97;;;18.82;100.00
54407;BME280;40313;50.308;30.374;2022-07-06T01:08:17;99368.16;;;18.82;100.00
54407;BME280;40313;50.308;30.374;2022-07-06T01:10:43;99364.84;;;18.80;100.00
54407;BME280;40313;50.308;30.374;2022-07-06T01:13:10;99366.78;;;18.78;100.00
54407;BME280;40313;50.308;30.374;2022-07-06T01:15:38;99366.09;;;18.76;100.00
54407;BME280;40313;50.308;30.374;2022-07-06T01:18:05;99367.22;;;18.74;100.00
54407;BME280;40313;50.308;30.374;2022-07-06T01:20:33;99370.00;;;18.72;100.00
54407;BME280;40313;50.308;30.374;2022-07-06T01:22:59;99372.78;;;18.71;100.00
54407;BME280;40313;50.308;30.374;2022-07-06T01:25:26;99371.94;;;18.70;100.00
54407;BME280;40313;50.308;30.374;2022-07-06T01:27:53;99366.13;;;18.67;100.00
54407;BME280;40313;50.308;30.374;2022-07-06T01:30:20;99371.41;;;18.67;100.00
54407;BME280;40313;50.308;30.374;2022-07-06T01:32:47;99355.72;;;18.65;100.00
54407;BME280;40313;50.308;30.374;2022-07-06T01:35:15;99365.28;;;18.66;100.00
54407;BME280;40313;50.308;30.374;2022-07-06T01:37:43;99368.06;;;18.64;100.00
54407;BME280;40313;50.308;30.374;2022-07-06T01:40:11;99368.22;;;18.63;100.00
54407;BME280;40313;50.308;30.374;2022-07-06T01:42:38;99359.63;;;18.61;100.00
54407;BME280;40313;50.308;30.374;2022-07-06T01:45:07;99360.28;;;18.63;100.00
54407;BME280;40313;50.308;30.374;2022-07-06T01:47:34;99361.28;;;18.62;100.00
54407;BME280;40313;50.308;30.374;2022-07-06T01:50:03;99361.28;;;18.62;100.00
54407;BME280;40313;50.308;30.374;2022-07-06T01:52:31;99363.78;;;18.63;100.00
54407;BME280;40313;50.308;30.374;2022-07-06T01:54:59;99358.34;;;18.65;100.00
54407;BME280;40313;50.308;30.374;2022-07-06T01:57:25;99364.75;;;18.62;100.00
54407;BME280;40313;50.308;30.374;2022-07-06T01:59:52;99368.06;;;18.64;100.00
54407;BME280;40313;50.308;30.374;2022-07-06T02:02:19;99355.72;;;18.65;100.00
54407;BME280;40313;50.308;30.374;2022-07-06T02:04:45;99368.63;;;18.68;100.00
54407;BME280;40313;50.308;30.374;2022-07-06T02:07:12;99367.78;;;18.68;100.00
54407;BME280;40313;50.308;30.374;2022-07-06T02:09:38;99358.06;;;18.68;100.00
54407;BME280;40313;50.308;30.374;2022-07-06T02:12:07;99363.34;;;18.68;100.00
54407;BME280;40313;50.308;30.374;2022-07-06T02:14:33;99360.41;;;18.71;100.00
54407;BME280;40313;50.308;30.374;2022-07-06T02:17:00;99354.97;;;18.73;100.00
54407;BME280;40313;50.308;30.374;2022-07-06T02:19:27;99350.50;;;18.73;100.00
54407;BME280;40313;50.308;30.374;2022-07-06T02:21:53;99355.53;;;18.76;100.00
54407;BME280;40313;50.308;30.374;2022-07-06T02:24:20;99352.75;;;18.78;100.00
54407;BME280;40313;50.308;30.374;2022-07-06T02:26:47;99342.84;;;18.80;100.00
54407;BME280;40313;50.308;30.374;2022-07-06T02:29:15;99355.59;;;18.85;100.00
54407;BME280;40313;50.308;30.374;2022-07-06T02:31:42;99361.63;;;18.87;100.00
54407;BME280;40313;50.308;30.374;2022-07-06T02:34:08;99358.00;;;18.88;100.00
54407;BME280;40313;50.308;30.374;2022-07-06T02:36:35;99349.94;;;18.89;100.00
54407;BME280;40313;50.308;30.374;2022-07-06T02:39:02;99362.16;;;18.90;100.00
54407;BME280;40313;50.308;30.374;2022-07-06T02:41:28;99354.91;;;18.92;100.00
54407;BME280;40313;50.308;30.374;2022-07-06T02:43:55;99366.00;;;18.96;100.00
54407;BME280;40313;50.308;30.374;2022-07-06T02:46:23;99361.28;;;18.99;100.00
54407;BME280;40313;50.308;30.374;2022-07-06T02:48:50;99341.00;;;18.90;100.00
54407;BME280;40313;50.308;30.374;2022-07-06T02:51:16;99353.88;;;19.03;100.00
54407;BME280;40313;50.308;30.374;2022-07-06T02:53:43;99336.25;;;18.94;100.00
54407;BME280;40313;50.308;30.374;2022-07-06T02:56:10;99350.97;;;19.06;100.00
54407;BME280;40313;50.308;30.374;2022-07-06T02:58:36;99350.97;;;19.06;100.00
54407;BME280;40313;50.308;30.374;2022-07-06T03:01:03;99350.66;;;19.09;100.00
54407;BME280;40313;50.308;30.374;2022-07-06T03:03:31;99355.34;;;19.15;100.00
54407;BME280;40313;50.308;30.374;2022-07-06T03:05:58;99351.41;;;19.20;100.00
54407;BME280;40313;50.308;30.374;2022-07-06T03:08:25;99354.97;;;19.28;100.00
54407;BME280;40313;50.308;30.374;2022-07-06T03:10:52;99356.19;;;19.34;100.00
54407;BME280;40313;50.308;30.374;2022-07-06T03:13:18;99346.66;;;19.41;100.00
54407;BME280;40313;50.308;30.374;2022-07-06T03:15:45;99355.06;;;19.55;100.00
54407;BME280;40313;50.308;30.374;2022-07-06T03:18:12;99352.19;;;19.66;100.00
54407;BME280;40313;50.308;30.374;2022-07-06T03:20:40;99357.13;;;19.79;100.00
54407;BME280;40313;50.308;30.374;2022-07-06T03:23:06;99356.03;;;20.08;100.00
54407;BME280;40313;50.308;30.374;2022-07-06T03:25:33;99357.53;;;20.36;100.00
54407;BME280;40313;50.308;30.374;2022-07-06T03:28:00;99350.28;;;20.73;100.00
54407;BME280;40313;50.308;30.374;2022-07-06T03:30:26;99348.53;;;20.90;100.00
54407;BME280;40313;50.308;30.374;2022-07-06T03:32:53;99350.13;;;21.26;100.00
54407;BME280;40313;50.308;30.374;2022-07-06T03:35:20;99338.69;;;22.40;100.00
54407;BME280;40313;50.308;30.374;2022-07-06T03:37:48;99335.06;;;22.81;100.00
54407;BME280;40313;50.308;30.374;2022-07-06T03:40:14;99335.59;;;22.76;100.00
54407;BME280;40313;50.308;30.374;2022-07-06T03:42:41;99337.91;;;22.80;100.00
54407;BME280;40313;50.308;30.374;2022-07-06T03:45:09;99330.94;;;22.70;100.00
54407;BME280;40313;50.308;30.374;2022-07-06T03:47:36;99337.66;;;22.58;100.00
54407;BME280;40313;50.308;30.374;2022-07-06T03:50:03;99330.84;;;22.55;100.00
54407;BME280;40313;50.308;30.374;2022-07-06T03:52:29;99333.25;;;22.73;100.00
54407;BME280;40313;50.308;30.374;2022-07-06T03:54:57;99336.16;;;22.64;100.00
54407;BME280;40313;50.308;30.374;2022-07-06T03:57:24;99330.00;;;22.55;100.00
54407;BME280;40313;50.308;30.374;2022-07-06T03:59:51;99328.56;;;22.44;100.00
54407;BME280;40313;50.308;30.374;2022-07-06T04:02:18;99320.78;;;22.34;100.00
54407;BME280;40313;50.308;30.374;2022-07-06T04:04:45;99323.91;;;22.30;100.00
54407;BME280;40313;50.308;30.374;2022-07-06T04:07:11;99326.75;;;22.28;100.00
54407;BME280;40313;50.308;30.374;2022-07-06T04:09:39;99324.25;;;22.26;100.00
54407;BME280;40313;50.308;30.374;2022-07-06T04:12:07;99330.41;;;22.27;100.00
54407;BME280;40313;50.308;30.374;2022-07-06T04:14:34;99319.78;;;22.35;100.00
54407;BME280;40313;50.308;30.374;2022-07-06T04:17:00;99319.59;;;22.45;100.00
54407;BME280;40313;50.308;30.374;2022-07-06T04:19:47;99314.56;;;22.58;100.00
54407;BME280;40313;50.308;30.374;2022-07-06T04:22:14;99317.75;;;22.85;100.00
54407;BME280;40313;50.308;30.374;2022-07-06T04:24:41;99312.09;;;24.19;100.00
54407;BME280;40313;50.308;30.374;2022-07-06T04:27:09;99305.13;;;25.58;100.00
54407;BME280;40313;50.308;30.374;2022-07-06T04:29:36;99302.63;;;26.76;100.00
54407;BME280;40313;50.308;30.374;2022-07-06T04:32:03;99296.16;;;27.05;100.00
54407;BME280;40313;50.308;30.374;2022-07-06T04:34:30;99295.44;;;27.65;100.00
54407;BME280;40313;50.308;30.374;2022-07-06T04:36:57;99287.97;;;27.40;100.00
54407;BME280;40313;50.308;30.374;2022-07-06T04:39:23;99291.22;;;27.16;100.00
54407;BME280;40313;50.308;30.374;2022-07-06T04:41:50;99290.31;;;26.82;100.00
54407;BME280;40313;50.308;30.374;2022-07-06T04:44:18;99287.13;;;26.58;100.00
54407;BME280;40313;50.308;30.374;2022-07-06T04:46:45;99294.03;;;26.46;100.00
54407;BME280;40313;50.308;30.374;2022-07-06T04:49:11;99287.69;;;26.47;100.00
54407;BME280;40313;50.308;30.374;2022-07-06T04:51:38;99281.38;;;26.61;100.00
54407;BME280;40313;50.308;30.374;2022-07-06T04:54:05;99288.06;;;26.85;100.00
54407;BME280;40313;50.308;30.374;2022-07-06T04:56:31;99275.97;;;27.10;100.00
54407;BME280;40313;50.308;30.374;2022-07-06T04:58:58;99280.94;;;27.33;100.00
54407;BME280;40313;50.308;30.374;2022-07-06T05:01:26;99277.66;;;27.77;100.00
54407;BME280;40313;50.308;30.374;2022-07-06T05:03:53;99276.22;;;28.02;100.00
54407;BME280;40313;50.308;30.374;2022-07-06T05:06:19;99274.25;;;29.84;100.00
54407;BME280;40313;50.308;30.374;2022-07-06T05:08:46;99264.06;;;31.86;90.18
54407;BME280;40313;50.308;30.374;2022-07-06T05:11:13;99268.59;;;34.44;74.40
54407;BME280;40313;50.308;30.374;2022-07-06T05:13:39;99266.66;;;34.22;70.76
54407;BME280;40313;50.308;30.374;2022-07-06T05:16:06;99269.31;;;33.78;71.97
54407;BME280;40313;50.308;30.374;2022-07-06T05:18:34;99262.63;;;35.56;62.01
54407;BME280;40313;50.308;30.374;2022-07-06T05:21:01;99266.56;;;35.06;61.36
54407;BME280;40313;50.308;30.374;2022-07-06T05:23:27;99276.84;;;34.32;63.04
54407;BME280;40313;50.308;30.374;2022-07-06T05:25:54;99291.03;;;33.66;66.98
54407;BME280;40313;50.308;30.374;2022-07-06T05:28:20;99289.97;;;33.84;64.65
54407;BME280;40313;50.308;30.374;2022-07-06T05:30:47;99288.97;;;35.28;58.02
54407;BME280;40313;50.308;30.374;2022-07-06T05:33:13;99282.56;;;35.07;58.90
54407;BME280;40313;50.308;30.374;2022-07-06T05:35:41;99271.78;;;34.41;57.30
54407;BME280;40313;50.308;30.374;2022-07-06T05:38:08;99274.38;;;33.74;57.13
54407;BME280;40313;50.308;30.374;2022-07-06T05:40:34;99271.97;;;33.10;59.49
54407;BME280;40313;50.308;30.374;2022-07-06T05:43:00;99258.97;;;33.41;57.72
54407;BME280;40313;50.308;30.374;2022-07-06T05:45:27;99268.63;;;33.71;57.12
54407;BME280;40313;50.308;30.374;2022-07-06T05:47:53;99262.59;;;34.42;54.76
54407;BME280;40313;50.308;30.374;2022-07-06T05:50:37;99263.47;;;33.86;55.04
54407;BME280;40313;50.308;30.374;2022-07-06T05:53:05;99256.91;;;33.14;57.05
54407;BME280;40313;50.308;30.374;2022-07-06T05:55:32;99251.31;;;32.46;60.09
54407;BME280;40313;50.308;30.374;2022-07-06T05:57:59;99255.63;;;31.95;61.93
54407;BME280;40313;50.308;30.374;2022-07-06T06:00:26;99245.88;;;32.17;62.36
54407;BME280;40313;50.308;30.374;2022-07-06T06:02:53;99237.25;;;35.73;51.51
54407;BME280;40313;50.308;30.374;2022-07-06T06:05:20;99236.38;;;38.36;44.35
54407;BME280;40313;50.308;30.374;2022-07-06T06:07:47;99232.63;;;40.62;39.87
54407;BME280;40313;50.308;30.374;2022-07-06T06:10:18;99227.81;;;42.50;36.62
54407;BME280;40313;50.308;30.374;2022-07-06T06:12:47;99225.38;;;44.19;33.45
54407;BME280;40313;50.308;30.374;2022-07-06T06:15:13;99231.41;;;45.57;31.00
54407;BME280;40313;50.308;30.374;2022-07-06T06:17:40;99227.63;;;46.72;30.51
54407;BME280;40313;50.308;30.374;2022-07-06T06:20:09;99228.13;;;47.20;28.73
54407;BME280;40313;50.308;30.374;2022-07-06T06:22:49;99229.25;;;47.77;26.45
54407;BME280;40313;50.308;30.374;2022-07-06T06:25:20;99217.38;;;48.42;26.88
54407;BME280;40313;50.308;30.374;2022-07-06T06:27:47;99221.97;;;48.50;27.12
54407;BME280;40313;50.308;30.374;2022-07-06T06:30:14;99221.22;;;48.66;26.33
54407;BME280;40313;50.308;30.374;2022-07-06T06:32:40;99218.28;;;49.03;26.05
54407;BME280;40313;50.308;30.374;2022-07-06T06:35:08;99221.44;;;49.33;24.65
54407;BME280;40313;50.308;30.374;2022-07-06T06:37:35;99209.91;;;49.31;24.42
54407;BME280;40313;50.308;30.374;2022-07-06T06:40:02;99211.41;;;50.12;24.28
54407;BME280;40313;50.308;30.374;2022-07-06T06:42:30;99208.44;;;50.40;23.20
54407;BME280;40313;50.308;30.374;2022-07-06T06:44:57;99207.94;;;50.35;23.45
54407;BME280;40313;50.308;30.374;2022-07-06T06:47:24;99216.41;;;50.81;22.78
54407;BME280;40313;50.308;30.374;2022-07-06T06:49:50;99200.94;;;51.03;22.52
54407;BME280;40313;50.308;30.374;2022-07-06T06:52:17;99197.72;;;51.24;21.72
54407;BME280;40313;50.308;30.374;2022-07-06T06:54:44;99204.50;;;51.27;21.68
54407;BME280;40313;50.308;30.374;2022-07-06T06:57:10;99197.84;;;51.31;22.28
54407;BME280;40313;50.308;30.374;2022-07-06T06:59:38;99198.63;;;51.32;21.61
54407;BME280;40313;50.308;30.374;2022-07-06T07:02:06;99196.13;;;51.00;22.48
54407;BME280;40313;50.308;30.374;2022-07-06T07:04:35;99192.09;;;51.21;22.13
54407;BME280;40313;50.308;30.374;2022-07-06T07:07:02;99198.22;;;51.30;22.18
54407;BME280;40313;50.308;30.374;2022-07-06T07:09:29;99193.94;;;50.67;21.92
54407;BME280;40313;50.308;30.374;2022-07-06T07:11:56;99196.69;;;49.24;23.09
54407;BME280;40313;50.308;30.374;2022-07-06T07:14:23;99195.78;;;47.08;25.24
54407;BME280;40313;50.308;30.374;2022-07-06T07:16:51;99200.59;;;45.25;26.22
54407;BME280;40313;50.308;30.374;2022-07-06T07:19:17;99189.72;;;43.39;29.42
54407;BME280;40313;50.308;30.374;2022-07-06T07:21:44;99192.38;;;41.75;30.75
54407;BME280;40313;50.308;30.374;2022-07-06T07:24:11;99183.19;;;40.20;33.22
54407;BME280;40313;50.308;30.374;2022-07-06T07:26:37;99195.19;;;38.88;35.15
54407;BME280;40313;50.308;30.374;2022-07-06T07:29:04;99190.28;;;37.85;36.21
54407;BME280;40313;50.308;30.374;2022-07-06T07:31:31;99189.59;;;37.02;39.06
54407;BME280;40313;50.308;30.374;2022-07-06T07:33:59;99191.66;;;36.33;40.30
54407;BME280;40313;50.308;30.374;2022-07-06T07:36:25;99197.03;;;35.70;41.24
54407;BME280;40313;50.308;30.374;2022-07-06T07:38:52;99197.28;;;35.25;42.74
54407;BME280;40313;50.308;30.374;2022-07-06T07:41:19;99195.38;;;34.88;45.71
54407;BME280;40313;50.308;30.374;2022-07-06T07:43:45;99192.41;;;34.63;47.07
54407;BME280;40313;50.308;30.374;2022-07-06T07:46:12;99198.63;;;34.36;47.46
54407;BME280;40313;50.308;30.374;2022-07-06T07:48:39;99194.47;;;34.06;48.87
54407;BME280;40313;50.308;30.374;2022-07-06T07:51:07;99192.13;;;33.92;49.80
54407;BME280;40313;50.308;30.374;2022-07-06T07:53:34;99190.53;;;33.74;51.36
54407;BME280;40313;50.308;30.374;2022-07-06T07:56:01;99192.25;;;33.64;52.83
54407;BME280;40313;50.308;30.374;2022-07-06T07:58:28;99192.06;;;33.48;52.65
54407;BME280;40313;50.308;30.374;2022-07-06T08:00:54;99192.31;;;33.30;53.32
54407;BME280;40313;50.308;30.374;2022-07-06T08:03:21;99198.34;;;33.20;56.37
54407;BME280;40313;50.308;30.374;2022-07-06T08:05:47;99189.34;;;33.14;58.29
54407;BME280;40313;50.308;30.374;2022-07-06T08:08:16;99192.06;;;33.14;60.57
54407;BME280;40313;50.308;30.374;2022-07-06T08:10:42;99188.03;;;33.17;61.22
54407;BME280;40313;50.308;30.374;2022-07-06T08:13:10;99189.34;;;33.14;61.29
54407;BME280;40313;50.308;30.374;2022-07-06T08:15:37;99188.75;;;33.12;59.90
54407;BME280;40313;50.308;30.374;2022-07-06T08:18:03;99186.50;;;33.04;58.57
54407;BME280;40313;50.308;30.374;2022-07-06T08:20:30;99183.09;;;32.97;57.71
54407;BME280;40313;50.308;30.374;2022-07-06T08:22:57;99191.47;;;32.95;56.94
54407;BME280;40313;50.308;30.374;2022-07-06T08:25:25;99177.13;;;32.95;57.10
54407;BME280;40313;50.308;30.374;2022-07-06T08:27:52;99182.03;;;32.98;60.17
54407;BME280;40313;50.308;30.374;2022-07-06T08:30:19;99180.41;;;32.97;59.44
54407;BME280;40313;50.308;30.374;2022-07-06T08:32:45;99173.88;;;32.93;56.10
54407;BME280;40313;50.308;30.374;2022-07-06T08:35:12;99169.03;;;32.95;57.82
54407;BME280;40313;50.308;30.374;2022-07-06T08:37:39;99174.84;;;33.03;59.01
54407;BME280;40313;50.308;30.374;2022-07-06T08:40:07;99172.22;;;33.08;56.88
54407;BME280;40313;50.308;30.374;2022-07-06T08:42:35;99170.94;;;33.11;55.51
54407;BME280;40313;50.308;30.374;2022-07-06T08:45:04;99166.81;;;33.08;55.09
54407;BME280;40313;50.308;30.374;2022-07-06T08:47:31;99162.47;;;33.07;56.28
54407;BME280;40313;50.308;30.374;2022-07-06T08:50:02;99168.22;;;33.11;56.00
54407;BME280;40313;50.308;30.374;2022-07-06T08:52:29;99167.13;;;33.12;56.00
54407;BME280;40313;50.308;30.374;2022-07-06T08:54:56;99158.06;;;33.18;56.05
54407;BME280;40313;50.308;30.374;2022-07-06T08:57:24;99151.09;;;33.22;56.57
54407;BME280;40313;50.308;30.374;2022-07-06T08:59:54;99154.41;;;33.24;57.61
54407;BME280;40313;50.308;30.374;2022-07-06T09:02:24;99151.69;;;33.24;55.79
54407;BME280;40313;50.308;30.374;2022-07-06T09:04:54;99154.03;;;33.21;55.04
54407;BME280;40313;50.308;30.374;2022-07-06T09:07:21;99142.53;;;33.26;53.73
54407;BME280;40313;50.308;30.374;2022-07-06T09:09:49;99137.16;;;33.31;52.04
54407;BME280;40313;50.308;30.374;2022-07-06T09:12:16;99142.91;;;33.34;52.56
54407;BME280;40313;50.308;30.374;2022-07-06T09:14:43;99139.47;;;33.39;53.05
54407;BME280;40313;50.308;30.374;2022-07-06T09:17:12;99139.47;;;33.39;52.08
54407;BME280;40313;50.308;30.374;2022-07-06T09:19:38;99145.38;;;33.36;51.66
54407;BME280;40313;50.308;30.374;2022-07-06T09:22:05;99138.81;;;33.32;51.10
54407;BME280;40313;50.308;30.374;2022-07-06T09:24:32;99134.97;;;33.28;51.58
54407;BME280;40313;50.308;30.374;2022-07-06T09:26:59;99126.31;;;33.26;50.67
54407;BME280;40313;50.308;30.374;2022-07-06T09:29:29;99122.69;;;33.20;50.84
54407;BME280;40313;50.308;30.374;2022-07-06T09:31:57;99126.19;;;33.20;49.82
54407;BME280;40313;50.308;30.374;2022-07-06T09:34:40;99112.19;;;33.06;48.28
54407;BME280;40313;50.308;30.374;2022-07-06T09:37:07;99114.97;;;33.12;48.29
54407;BME280;40313;50.308;30.374;2022-07-06T09:39:34;99116.44;;;33.19;50.80
54407;BME280;40313;50.308;30.374;2022-07-06T09:42:03;99102.38;;;33.17;50.11
54407;BME280;40313;50.308;30.374;2022-07-06T09:44:31;99109.41;;;33.18;51.11
54407;BME280;40313;50.308;30.374;2022-07-06T09:47:04;99112.13;;;33.18;48.63
54407;BME280;40313;50.308;30.374;2022-07-06T09:49:32;99110.34;;;33.24;49.64
54407;BME280;40313;50.308;30.374;2022-07-06T09:52:00;99111.22;;;33.30;49.91
54407;BME280;40313;50.308;30.374;2022-07-06T09:54:28;99112.94;;;33.36;48.86
54407;BME280;40313;50.308;30.374;2022-07-06T09:56:55;99094.16;;;33.29;48.31
54407;BME280;40313;50.308;30.374;2022-07-06T09:59:24;99105.63;;;33.36;47.81
54407;BME280;40313;50.308;30.374;2022-07-06T10:01:52;99097.88;;;33.45;49.05
54407;BME280;40313;50.308;30.374;2022-07-06T10:04:20;99089.44;;;33.58;49.04
54407;BME280;40313;50.308;30.374;2022-07-06T10:06:48;99097.81;;;33.79;48.80
54407;BME280;40313;50.308;30.374;2022-07-06T10:09:16;99090.63;;;33.90;46.89
54407;BME280;40313;50.308;30.374;2022-07-06T10:11:46;99089.47;;;34.08;46.65
54407;BME280;40313;50.308;30.374;2022-07-06T10:14:17;99078.75;;;34.18;46.40
54407;BME280;40313;50.308;30.374;2022-07-06T10:16:45;99077.78;;;34.30;46.26
54407;BME280;40313;50.308;30.374;2022-07-06T10:19:13;99071.38;;;34.41;45.76
54407;BME280;40313;50.308;30.374;2022-07-06T10:21:41;99077.16;;;34.50;45.53
54407;BME280;40313;50.308;30.374;2022-07-06T10:24:10;99076.41;;;34.59;44.47
54407;BME280;40313;50.308;30.374;2022-07-06T10:26:38;99081.34;;;34.63;43.21
54407;BME280;40313;50.308;30.374;2022-07-06T10:29:05;99070.50;;;34.63;43.28
54407;BME280;40313;50.308;30.374;2022-07-06T10:31:34;99059.41;;;34.64;42.92
54407;BME280;40313;50.308;30.374;2022-07-06T10:34:04;99070.00;;;34.66;43.79
54407;BME280;40313;50.308;30.374;2022-07-06T10:36:37;99068.50;;;34.85;43.07
54407;BME280;40313;50.308;30.374;2022-07-06T10:39:04;99055.13;;;35.11;42.92
54407;BME280;40313;50.308;30.374;2022-07-06T10:41:52;99059.63;;;35.38;42.40
54407;BME280;40313;50.308;30.374;2022-07-06T10:44:20;99041.81;;;35.57;42.28
54407;BME280;40313;50.308;30.374;2022-07-06T10:46:54;99049.72;;;35.79;40.21
54407;BME280;40313;50.308;30.374;2022-07-06T10:49:23;99044.38;;;36.05;41.98
54407;BME280;40313;50.308;30.374;2022-07-06T10:51:50;99044.94;;;36.28;40.46
54407;BME280;40313;50.308;30.374;2022-07-06T10:54:18;99033.84;;;36.35;40.45
54407;BME280;40313;50.308;30.374;2022-07-06T10:56:47;99021.91;;;36.36;40.76
54407;BME280;40313;50.308;30.374;2022-07-06T10:59:16;99019.19;;;36.36;40.79
54407;BME280;40313;50.308;30.374;2022-07-06T11:02:14;99015.91;;;36.23;39.76
54407;BME280;40313;50.308;30.374;2022-07-06T11:04:43;99005.06;;;36.33;40.76
54407;BME280;40313;50.308;30.374;2022-07-06T11:07:11;99008.84;;;36.27;39.29
54407;BME280;40313;50.308;30.374;2022-07-06T11:09:37;99002.31;;;36.13;39.98
54407;BME280;40313;50.308;30.374;2022-07-06T11:12:17;99003.91;;;35.88;39.04
54407;BME280;40313;50.308;30.374;2022-07-06T11:14:47;98997.31;;;35.63;39.02
54407;BME280;40313;50.308;30.374;2022-07-06T11:17:15;98982.63;;;35.49;40.63
54407;BME280;40313;50.308;30.374;2022-07-06T11:19:49;98990.50;;;35.45;40.43
54407;BME280;40313;50.308;30.374;2022-07-06T11:22:17;98980.41;;;35.30;42.39
54407;BME280;40313;50.308;30.374;2022-07-06T11:24:45;98988.47;;;35.20;41.01
54407;BME280;40313;50.308;30.374;2022-07-06T11:27:12;98990.00;;;35.01;41.16
54407;BME280;40313;50.308;30.374;2022-07-06T11:29:39;98991.56;;;34.86;41.48
54407;BME280;40313;50.308;30.374;2022-07-06T11:32:08;98984.41;;;34.70;41.87
54407;BME280;40313;50.308;30.374;2022-07-06T11:34:37;98988.94;;;34.59;41.69
54407;BME280;40313;50.308;30.374;2022-07-06T11:37:05;98978.25;;;34.42;42.01
54407;BME280;40313;50.308;30.374;2022-07-06T11:39:35;98989.03;;;34.37;42.45
54407;BME280;40313;50.308;30.374;2022-07-06T11:42:03;98989.03;;;34.37;43.33
54407;BME280;40313;50.308;30.374;2022-07-06T11:44:30;98978.81;;;34.44;42.44
54407;BME280;40313;50.308;30.374;2022-07-06T11:46:57;98982.13;;;34.51;42.34
54407;BME280;40313;50.308;30.374;2022-07-06T11:49:28;98976.72;;;34.51;42.08
54407;BME280;40313;50.308;30.374;2022-07-06T11:51:54;98973.63;;;34.42;41.55
54407;BME280;40313;50.308;30.374;2022-07-06T11:54:22;98971.97;;;34.31;41.79
54407;BME280;40313;50.308;30.374;2022-07-06T11:56:50;98968.06;;;34.22;41.75
54407;BME280;40313;50.308;30.374;2022-07-06T11:59:21;98966.94;;;34.18;42.94
54407;BME280;40313;50.308;30.374;2022-07-06T12:01:48;98964.94;;;34.08;42.35
54407;BME280;40313;50.308;30.374;2022-07-06T12:04:15;98967.06;;;34.01;42.57
54407;BME280;40313;50.308;30.374;2022-07-06T12:06:44;98967.56;;;33.98;43.35
54407;BME280;40313;50.308;30.374;2022-07-06T12:09:12;98966.81;;;34.02;43.89
54407;BME280;40313;50.308;30.374;2022-07-06T12:11:39;98957.06;;;34.01;44.09
54407;BME280;40313;50.308;30.374;2022-07-06T12:14:13;98960.06;;;34.05;42.94
54407;BME280;40313;50.308;30.374;2022-07-06T12:16:40;98960.13;;;34.10;43.41
54407;BME280;40313;50.308;30.374;2022-07-06T12:19:07;98958.19;;;34.05;43.37
54407;BME280;40313;50.308;30.374;2022-07-06T12:21:43;98962.78;;;34.05;43.91
54407;BME280;40313;50.308;30.374;2022-07-06T12:24:17;98955.22;;;34.07;44.93
54407;BME280;40313;50.308;30.374;2022-07-06T12:26:44;98945.53;;;34.16;43.64
54407;BME280;40313;50.308;30.374;2022-07-06T12:29:12;98942.63;;;34.23;43.88
54407;BME280;40313;50.308;30.374;2022-07-06T12:31:40;98942.41;;;34.30;45.52
54407;BME280;40313;50.308;30.374;2022-07-06T12:34:12;98941.91;;;34.33;45.91
54407;BME280;40313;50.308;30.374;2022-07-06T12:36:44;98942.78;;;34.38;44.87
54407;BME280;40313;50.308;30.374;2022-07-06T12:39:11;98950.09;;;34.43;44.32
54407;BME280;40313;50.308;30.374;2022-07-06T12:41:44;98950.81;;;34.01;44.46
54407;BME280;40313;50.308;30.374;2022-07-06T12:44:11;98957.25;;;33.40;45.98
54407;BME280;40313;50.308;30.374;2022-07-06T12:46:38;98962.56;;;32.90;48.07
54407;BME280;40313;50.308;30.374;2022-07-06T12:49:14;98962.13;;;32.26;48.94